sensor_id;sensor_type;location;lat;lon;timestamp;P1;durP1;ratioP1;P2;durP2;ratioP2
6527;SDS011;64597;42.664;23.256;2023-09-07T00:01:54;7.30;;;4.13;;
6527;SDS011;64597;42.664;23.256;2023-09-07T00:04:20;5.32;;;4.25;;
6527;SDS011;64597;42.664;23.256;2023-09-07T00:06:47;6.05;;;3.92;;
6527;SDS011;64597;42.664;23.256;2023-09-07T00:09:14;5.90;;;4.07;;
6527;SDS011;64597;42.664;23.256;2023-09-07T00:11:41;5.30;;;3.80;;
6527;SDS011;64597;42.664;23.256;2023-09-07T00:14:06;7.63;;;4.65;;
6527;SDS011;64597;42.664;23.256;2023-09-07T00:16:32;6.10;;;4.10;;
6527;SDS011;64597;42.664;23.256;2023-09-07T00:19:03;6.75;;;4.15;;
6527;SDS011;64597;42.664;23.256;2023-09-07T00:21:29;7.07;;;4.60;;
6527;SDS011;64597;42.664;23.256;2023-09-07T00:23:54;6.28;;;4.47;;
6527;SDS011;64597;42.664;23.256;2023-09-07T00:26:20;6.97;;;5.03;;
6527;SDS011;64597;42.664;23.256;2023-09-07T00:28:46;5.57;;;4.53;;
6527;SDS011;64597;42.664;23.256;2023-09-07T00:31:11;5.53;;;4.85;;
6527;SDS011;64597;42.664;23.256;2023-09-07T00:33:37;8.38;;;4.70;;
6527;SDS011;64597;42.664;23.256;2023-09-07T00:36:02;6.22;;;4.63;;
6527;SDS011;64597;42.664;23.256;2023-09-07T00:38:28;6.85;;;4.82;;
6527;SDS011;64597;42.664;23.256;2023-09-07T00:40:54;6.88;;;5.20;;
6527;SDS011;64597;42.664;23.256;2023-09-07T00:43:19;7.05;;;5.25;;
6527;SDS011;64597;42.664;23.256;2023-09-07T00:45:45;6.40;;;4.68;;
6527;SDS011;64597;42.664;23.256;2023-09-07T00:48:11;8.23;;;5.85;;
6527;SDS011;64597;42.664;23.256;2023-09-07T00:50:38;9.18;;;5.50;;
6527;SDS011;64597;42.664;23.256;2023-09-07T00:53:04;8.60;;;6.13;;
6527;SDS011;64597;42.664;23.256;2023-09-07T00:55:32;9.52;;;5.65;;
6527;SDS011;64597;42.664;23.256;2023-09-07T00:57:59;8.07;;;5.13;;
6527;SDS011;64597;42.664;23.256;2023-09-07T01:00:28;11.30;;;6.45;;
6527;SDS011;64597;42.664;23.256;2023-09-07T01:02:54;10.00;;;5.82;;
6527;SDS011;64597;42.664;23.256;2023-09-07T01:05:24;10.23;;;7.20;;
6527;SDS011;64597;42.664;23.256;2023-09-07T01:07:59;9.25;;;6.15;;
6527;SDS011;64597;42.664;23.256;2023-09-07T01:10:33;9.82;;;7.13;;
6527;SDS011;64597;42.664;23.256;2023-09-07T01:12:58;12.05;;;6.82;;
6527;SDS011;64597;42.664;23.256;2023-09-07T01:15:23;10.05;;;6.97;;
6527;SDS011;64597;42.664;23.256;2023-09-07T01:17:49;9.63;;;6.60;;
6527;SDS011;64597;42.664;23.256;2023-09-07T01:20:15;11.00;;;7.00;;
6527;SDS011;64597;42.664;23.256;2023-09-07T01:22:42;10.40;;;7.10;;
6527;SDS011;64597;42.664;23.256;2023-09-07T01:25:08;10.15;;;7.32;;
6527;SDS011;64597;42.664;23.256;2023-09-07T01:27:35;10.98;;;7.40;;
6527;SDS011;64597;42.664;23.256;2023-09-07T01:30:01;11.45;;;7.88;;
6527;SDS011;64597;42.664;23.256;2023-09-07T01:32:28;11.95;;;7.65;;
6527;SDS011;64597;42.664;23.256;2023-09-07T01:34:57;11.95;;;7.65;;
6527;SDS011;64597;42.664;23.256;2023-09-07T01:37:23;10.75;;;7.50;;
6527;SDS011;64597;42.664;23.256;2023-09-07T01:39:48;10.82;;;7.32;;
6527;SDS011;64597;42.664;23.256;2023-09-07T01:42:15;12.23;;;7.65;;
6527;SDS011;64597;42.664;23.256;2023-09-07T01:44:41;11.25;;;8.05;;
6527;SDS011;64597;42.664;23.256;2023-09-07T01:47:06;12.90;;;8.77;;
6527;SDS011;64597;42.664;23.256;2023-09-07T01:49:32;14.25;;;8.05;;
6527;SDS011;64597;42.664;23.256;2023-09-07T01:51:57;17.38;;;8.38;;
6527;SDS011;64597;42.664;23.256;2023-09-07T01:54:22;12.52;;;7.63;;
6527;SDS011;64597;42.664;23.256;2023-09-07T01:56:48;14.27;;;8.38;;
6527;SDS011;64597;42.664;23.256;2023-09-07T01:59:13;13.52;;;7.55;;
6527;SDS011;64597;42.664;23.256;2023-09-07T02:01:39;10.52;;;6.78;;
6527;SDS011;64597;42.664;23.256;2023-09-07T02:04:05;11.77;;;7.78;;
6527;SDS011;64597;42.664;23.256;2023-09-07T02:06:31;11.63;;;8.13;;
6527;SDS011;64597;42.664;23.256;2023-09-07T02:08:56;12.13;;;7.85;;
6527;SDS011;64597;42.664;23.256;2023-09-07T02:11:21;10.60;;;7.20;;
6527;SDS011;64597;42.664;23.256;2023-09-07T02:13:47;12.75;;;7.72;;
6527;SDS011;64597;42.664;23.256;2023-09-07T02:16:13;11.90;;;7.97;;
6527;SDS011;64597;42.664;23.256;2023-09-07T02:18:39;11.00;;;6.97;;
6527;SDS011;64597;42.664;23.256;2023-09-07T02:21:12;12.70;;;7.32;;
6527;SDS011;64597;42.664;23.256;2023-09-07T02:23:37;11.45;;;7.38;;
6527;SDS011;64597;42.664;23.256;2023-09-07T02:26:03;13.10;;;8.07;;
6527;SDS011;64597;42.664;23.256;2023-09-07T02:28:29;9.80;;;6.78;;
6527;SDS011;64597;42.664;23.256;2023-09-07T02:30:55;11.23;;;6.97;;
6527;SDS011;64597;42.664;23.256;2023-09-07T02:33:27;10.48;;;7.40;;
6527;SDS011;64597;42.664;23.256;2023-09-07T02:35:52;9.65;;;7.45;;
6527;SDS011;64597;42.664;23.256;2023-09-07T02:38:18;10.15;;;7.55;;
6527;SDS011;64597;42.664;23.256;2023-09-07T02:40:43;10.23;;;7.43;;
6527;SDS011;64597;42.664;23.256;2023-09-07T02:43:09;13.00;;;7.32;;
6527;SDS011;64597;42.664;23.256;2023-09-07T02:45:35;12.32;;;7.47;;
6527;SDS011;64597;42.664;23.256;2023-09-07T02:48:01;8.15;;;6.00;;
6527;SDS011;64597;42.664;23.256;2023-09-07T02:53:25;12.25;;;7.28;;
6527;SDS011;64597;42.664;23.256;2023-09-07T02:55:51;11.00;;;7.30;;
6527;SDS011;64597;42.664;23.256;2023-09-07T02:58:16;10.18;;;6.93;;
6527;SDS011;64597;42.664;23.256;2023-09-07T03:00:45;10.85;;;7.32;;
6527;SDS011;64597;42.664;23.256;2023-09-07T03:03:12;10.60;;;6.47;;
6527;SDS011;64597;42.664;23.256;2023-09-07T03:05:41;14.32;;;7.07;;
6527;SDS011;64597;42.664;23.256;2023-09-07T03:08:07;13.45;;;7.13;;
6527;SDS011;64597;42.664;23.256;2023-09-07T03:10:33;14.68;;;8.90;;
6527;SDS011;64597;42.664;23.256;2023-09-07T03:13:03;9.93;;;7.43;;
6527;SDS011;64597;42.664;23.256;2023-09-07T03:15:28;13.35;;;8.52;;
6527;SDS011;64597;42.664;23.256;2023-09-07T03:17:54;11.23;;;7.80;;
6527;SDS011;64597;42.664;23.256;2023-09-07T03:20:19;11.38;;;7.93;;
6527;SDS011;64597;42.664;23.256;2023-09-07T03:22:45;14.65;;;8.77;;
6527;SDS011;64597;42.664;23.256;2023-09-07T03:25:11;12.98;;;7.95;;
6527;SDS011;64597;42.664;23.256;2023-09-07T03:27:38;12.48;;;8.75;;
6527;SDS011;64597;42.664;23.256;2023-09-07T03:30:04;10.25;;;6.85;;
6527;SDS011;64597;42.664;23.256;2023-09-07T03:32:30;10.75;;;7.85;;
6527;SDS011;64597;42.664;23.256;2023-09-07T03:34:57;10.93;;;7.40;;
6527;SDS011;64597;42.664;23.256;2023-09-07T03:37:29;12.13;;;7.43;;
6527;SDS011;64597;42.664;23.256;2023-09-07T03:39:55;12.85;;;7.50;;
6527;SDS011;64597;42.664;23.256;2023-09-07T03:42:21;13.18;;;8.13;;
6527;SDS011;64597;42.664;23.256;2023-09-07T03:44:47;11.10;;;7.80;;
6527;SDS011;64597;42.664;23.256;2023-09-07T03:47:13;11.68;;;7.45;;
6527;SDS011;64597;42.664;23.256;2023-09-07T03:49:40;14.23;;;8.13;;
6527;SDS011;64597;42.664;23.256;2023-09-07T03:52:06;14.23;;;8.80;;
6527;SDS011;64597;42.664;23.256;2023-09-07T03:54:32;12.38;;;8.10;;
6527;SDS011;64597;42.664;23.256;2023-09-07T03:56:57;12.70;;;7.97;;
6527;SDS011;64597;42.664;23.256;2023-09-07T03:59:23;17.50;;;8.88;;
6527;SDS011;64597;42.664;23.256;2023-09-07T04:01:48;13.57;;;8.80;;
6527;SDS011;64597;42.664;23.256;2023-09-07T04:04:14;15.98;;;9.07;;
6527;SDS011;64597;42.664;23.256;2023-09-07T04:06:40;11.68;;;8.50;;
6527;SDS011;64597;42.664;23.256;2023-09-07T04:09:05;14.07;;;8.48;;
6527;SDS011;64597;42.664;23.256;2023-09-07T04:11:31;13.95;;;8.38;;
6527;SDS011;64597;42.664;23.256;2023-09-07T04:13:57;14.82;;;8.15;;
6527;SDS011;64597;42.664;23.256;2023-09-07T04:16:22;13.38;;;8.52;;
6527;SDS011;64597;42.664;23.256;2023-09-07T04:18:47;13.57;;;7.88;;
6527;SDS011;64597;42.664;23.256;2023-09-07T04:21:13;13.60;;;7.93;;
6527;SDS011;64597;42.664;23.256;2023-09-07T04:23:38;13.93;;;8.05;;
6527;SDS011;64597;42.664;23.256;2023-09-07T04:26:08;12.88;;;8.55;;
6527;SDS011;64597;42.664;23.256;2023-09-07T04:28:35;13.73;;;8.25;;
6527;SDS011;64597;42.664;23.256;2023-09-07T04:31:01;12.70;;;8.82;;
6527;SDS011;64597;42.664;23.256;2023-09-07T04:33:29;13.75;;;8.50;;
6527;SDS011;64597;42.664;23.256;2023-09-07T04:35:55;14.73;;;8.95;;
6527;SDS011;64597;42.664;23.256;2023-09-07T04:38:21;12.40;;;7.68;;
6527;SDS011;64597;42.664;23.256;2023-09-07T04:40:46;13.18;;;8.23;;
6527;SDS011;64597;42.664;23.256;2023-09-07T04:43:12;15.15;;;8.55;;
6527;SDS011;64597;42.664;23.256;2023-09-07T04:45:45;12.82;;;8.55;;
6527;SDS011;64597;42.664;23.256;2023-09-07T04:48:11;11.55;;;8.18;;
6527;SDS011;64597;42.664;23.256;2023-09-07T04:50:36;12.60;;;8.77;;
6527;SDS011;64597;42.664;23.256;2023-09-07T04:53:03;10.27;;;5.55;;
6527;SDS011;64597;42.664;23.256;2023-09-07T04:55:28;12.65;;;6.63;;
6527;SDS011;64597;42.664;23.256;2023-09-07T04:57:55;10.02;;;7.05;;
6527;SDS011;64597;42.664;23.256;2023-09-07T05:00:37;11.38;;;7.10;;
6527;SDS011;64597;42.664;23.256;2023-09-07T05:03:03;9.02;;;6.45;;
6527;SDS011;64597;42.664;23.256;2023-09-07T05:05:28;9.52;;;6.60;;
6527;SDS011;64597;42.664;23.256;2023-09-07T05:10:44;10.60;;;7.05;;
6527;SDS011;64597;42.664;23.256;2023-09-07T05:13:09;8.60;;;6.72;;
6527;SDS011;64597;42.664;23.256;2023-09-07T05:15:35;8.10;;;6.30;;
6527;SDS011;64597;42.664;23.256;2023-09-07T05:18:00;9.88;;;6.95;;
6527;SDS011;64597;42.664;23.256;2023-09-07T05:20:26;10.10;;;7.20;;
6527;SDS011;64597;42.664;23.256;2023-09-07T05:22:55;12.82;;;7.50;;
6527;SDS011;64597;42.664;23.256;2023-09-07T05:25:21;9.93;;;6.25;;
6527;SDS011;64597;42.664;23.256;2023-09-07T05:27:53;11.57;;;6.85;;
6527;SDS011;64597;42.664;23.256;2023-09-07T05:30:24;9.63;;;6.75;;
6527;SDS011;64597;42.664;23.256;2023-09-07T05:32:50;9.68;;;6.35;;
6527;SDS011;64597;42.664;23.256;2023-09-07T05:35:15;11.35;;;8.43;;
6527;SDS011;64597;42.664;23.256;2023-09-07T05:37:42;18.55;;;9.90;;
6527;SDS011;64597;42.664;23.256;2023-09-07T05:40:07;12.73;;;7.38;;
6527;SDS011;64597;42.664;23.256;2023-09-07T05:42:33;10.32;;;6.30;;
6527;SDS011;64597;42.664;23.256;2023-09-07T05:45:00;38.90;;;15.23;;
6527;SDS011;64597;42.664;23.256;2023-09-07T05:47:25;30.70;;;11.80;;
6527;SDS011;64597;42.664;23.256;2023-09-07T05:49:51;16.58;;;9.07;;
6527;SDS011;64597;42.664;23.256;2023-09-07T05:52:17;16.85;;;9.00;;
6527;SDS011;64597;42.664;23.256;2023-09-07T05:54:43;12.55;;;7.50;;
6527;SDS011;64597;42.664;23.256;2023-09-07T05:57:09;11.48;;;7.68;;
6527;SDS011;64597;42.664;23.256;2023-09-07T05:59:34;9.82;;;6.65;;
6527;SDS011;64597;42.664;23.256;2023-09-07T06:02:00;10.10;;;6.38;;
6527;SDS011;64597;42.664;23.256;2023-09-07T06:04:26;8.35;;;6.13;;
6527;SDS011;64597;42.664;23.256;2023-09-07T06:06:52;8.95;;;6.72;;
6527;SDS011;64597;42.664;23.256;2023-09-07T06:09:17;8.75;;;6.20;;
6527;SDS011;64597;42.664;23.256;2023-09-07T06:11:43;8.45;;;5.75;;
6527;SDS011;64597;42.664;23.256;2023-09-07T06:14:09;8.48;;;6.55;;
6527;SDS011;64597;42.664;23.256;2023-09-07T06:16:34;9.60;;;6.68;;
6527;SDS011;64597;42.664;23.256;2023-09-07T06:19:00;10.30;;;7.15;;
6527;SDS011;64597;42.664;23.256;2023-09-07T06:21:26;13.18;;;6.88;;
6527;SDS011;64597;42.664;23.256;2023-09-07T06:23:52;8.10;;;6.00;;
6527;SDS011;64597;42.664;23.256;2023-09-07T06:26:17;10.13;;;6.18;;
6527;SDS011;64597;42.664;23.256;2023-09-07T06:28:44;13.00;;;6.75;;
6527;SDS011;64597;42.664;23.256;2023-09-07T06:31:09;7.03;;;5.47;;
6527;SDS011;64597;42.664;23.256;2023-09-07T06:33:35;8.30;;;6.22;;
6527;SDS011;64597;42.664;23.256;2023-09-07T06:36:00;9.85;;;5.55;;
6527;SDS011;64597;42.664;23.256;2023-09-07T06:38:27;9.45;;;5.75;;
6527;SDS011;64597;42.664;23.256;2023-09-07T06:40:53;6.85;;;5.07;;
6527;SDS011;64597;42.664;23.256;2023-09-07T06:43:18;7.10;;;4.93;;
6527;SDS011;64597;42.664;23.256;2023-09-07T06:45:44;6.97;;;4.85;;
6527;SDS011;64597;42.664;23.256;2023-09-07T06:48:09;7.80;;;4.95;;
6527;SDS011;64597;42.664;23.256;2023-09-07T06:50:35;5.80;;;4.90;;
6527;SDS011;64597;42.664;23.256;2023-09-07T06:53:00;5.40;;;4.22;;
6527;SDS011;64597;42.664;23.256;2023-09-07T06:55:26;7.45;;;4.60;;
6527;SDS011;64597;42.664;23.256;2023-09-07T06:57:53;5.85;;;4.00;;
6527;SDS011;64597;42.664;23.256;2023-09-07T07:00:19;7.75;;;4.85;;
6527;SDS011;64597;42.664;23.256;2023-09-07T07:02:44;4.75;;;4.05;;
6527;SDS011;64597;42.664;23.256;2023-09-07T07:05:09;6.75;;;5.20;;
6527;SDS011;64597;42.664;23.256;2023-09-07T07:07:35;7.60;;;5.13;;
6527;SDS011;64597;42.664;23.256;2023-09-07T07:10:00;7.32;;;4.90;;
6527;SDS011;64597;42.664;23.256;2023-09-07T07:12:26;6.40;;;4.28;;
6527;SDS011;64597;42.664;23.256;2023-09-07T07:14:51;6.85;;;4.78;;
6527;SDS011;64597;42.664;23.256;2023-09-07T07:17:17;5.82;;;4.25;;
6527;SDS011;64597;42.664;23.256;2023-09-07T07:19:42;7.43;;;4.47;;
6527;SDS011;64597;42.664;23.256;2023-09-07T07:22:08;7.43;;;4.60;;
6527;SDS011;64597;42.664;23.256;2023-09-07T07:24:34;6.25;;;4.32;;
6527;SDS011;64597;42.664;23.256;2023-09-07T07:26:59;5.13;;;4.15;;
6527;SDS011;64597;42.664;23.256;2023-09-07T07:29:25;6.40;;;4.35;;
6527;SDS011;64597;42.664;23.256;2023-09-07T07:31:50;5.18;;;4.15;;
6527;SDS011;64597;42.664;23.256;2023-09-07T07:34:16;5.80;;;4.07;;
6527;SDS011;64597;42.664;23.256;2023-09-07T07:36:41;5.30;;;4.00;;
6527;SDS011;64597;42.664;23.256;2023-09-07T07:39:07;5.47;;;4.32;;
6527;SDS011;64597;42.664;23.256;2023-09-07T07:41:32;8.75;;;4.28;;
6527;SDS011;64597;42.664;23.256;2023-09-07T07:43:58;5.15;;;4.53;;
6527;SDS011;64597;42.664;23.256;2023-09-07T07:46:23;6.13;;;4.35;;
6527;SDS011;64597;42.664;23.256;2023-09-07T07:48:49;5.82;;;4.22;;
6527;SDS011;64597;42.664;23.256;2023-09-07T07:51:14;6.55;;;4.85;;
6527;SDS011;64597;42.664;23.256;2023-09-07T07:53:40;5.40;;;4.40;;
6527;SDS011;64597;42.664;23.256;2023-09-07T07:56:06;6.30;;;5.30;;
6527;SDS011;64597;42.664;23.256;2023-09-07T07:58:39;7.18;;;4.72;;
6527;SDS011;64597;42.664;23.256;2023-09-07T08:01:10;6.45;;;5.30;;
6527;SDS011;64597;42.664;23.256;2023-09-07T08:03:39;7.88;;;5.10;;
6527;SDS011;64597;42.664;23.256;2023-09-07T08:06:05;6.35;;;4.80;;
6527;SDS011;64597;42.664;23.256;2023-09-07T08:08:31;6.13;;;4.80;;
6527;SDS011;64597;42.664;23.256;2023-09-07T08:10:57;5.80;;;4.68;;
6527;SDS011;64597;42.664;23.256;2023-09-07T08:13:25;6.32;;;5.15;;
6527;SDS011;64597;42.664;23.256;2023-09-07T08:15:50;8.27;;;4.85;;
6527;SDS011;64597;42.664;23.256;2023-09-07T08:18:16;6.32;;;4.65;;
6527;SDS011;64597;42.664;23.256;2023-09-07T08:20:41;5.88;;;4.53;;
6527;SDS011;64597;42.664;23.256;2023-09-07T08:23:07;5.03;;;4.22;;
6527;SDS011;64597;42.664;23.256;2023-09-07T08:25:34;7.10;;;4.40;;
6527;SDS011;64597;42.664;23.256;2023-09-07T08:28:00;4.75;;;4.20;;
6527;SDS011;64597;42.664;23.256;2023-09-07T08:30:30;5.88;;;4.75;;
6527;SDS011;64597;42.664;23.256;2023-09-07T08:32:55;6.85;;;4.38;;
6527;SDS011;64597;42.664;23.256;2023-09-07T08:35:21;6.75;;;4.30;;
6527;SDS011;64597;42.664;23.256;2023-09-07T08:37:52;5.18;;;4.38;;
6527;SDS011;64597;42.664;23.256;2023-09-07T08:40:17;5.97;;;4.70;;
6527;SDS011;64597;42.664;23.256;2023-09-07T08:42:44;9.73;;;4.95;;
6527;SDS011;64597;42.664;23.256;2023-09-07T08:45:09;5.10;;;4.20;;
6527;SDS011;64597;42.664;23.256;2023-09-07T08:47:40;4.90;;;4.35;;
6527;SDS011;64597;42.664;23.256;2023-09-07T08:50:07;8.23;;;5.10;;
6527;SDS011;64597;42.664;23.256;2023-09-07T08:52:34;7.22;;;4.10;;
6527;SDS011;64597;42.664;23.256;2023-09-07T08:55:00;4.82;;;4.07;;
6527;SDS011;64597;42.664;23.256;2023-09-07T08:57:29;5.15;;;4.13;;
6527;SDS011;64597;42.664;23.256;2023-09-07T08:59:56;6.15;;;4.22;;
6527;SDS011;64597;42.664;23.256;2023-09-07T09:02:21;6.18;;;4.35;;
6527;SDS011;64597;42.664;23.256;2023-09-07T09:04:47;5.07;;;4.13;;
6527;SDS011;64597;42.664;23.256;2023-09-07T09:07:13;7.93;;;4.22;;
6527;SDS011;64597;42.664;23.256;2023-09-07T09:09:39;5.40;;;4.68;;
6527;SDS011;64597;42.664;23.256;2023-09-07T09:12:08;8.02;;;4.25;;
6527;SDS011;64597;42.664;23.256;2023-09-07T09:14:35;6.57;;;4.43;;
6527;SDS011;64597;42.664;23.256;2023-09-07T09:17:00;5.35;;;4.32;;
6527;SDS011;64597;42.664;23.256;2023-09-07T09:19:30;4.72;;;4.15;;
6527;SDS011;64597;42.664;23.256;2023-09-07T09:21:58;4.18;;;3.08;;
6527;SDS011;64597;42.664;23.256;2023-09-07T09:24:24;3.92;;;3.25;;
6527;SDS011;64597;42.664;23.256;2023-09-07T09:26:50;5.88;;;3.95;;
6527;SDS011;64597;42.664;23.256;2023-09-07T09:29:15;8.27;;;4.38;;
6527;SDS011;64597;42.664;23.256;2023-09-07T09:31:41;5.53;;;3.83;;
6527;SDS011;64597;42.664;23.256;2023-09-07T09:34:06;5.55;;;3.67;;
6527;SDS011;64597;42.664;23.256;2023-09-07T09:36:33;6.07;;;3.70;;
6527;SDS011;64597;42.664;23.256;2023-09-07T09:39:00;5.80;;;4.50;;
6527;SDS011;64597;42.664;23.256;2023-09-07T09:41:25;5.78;;;3.40;;
6527;SDS011;64597;42.664;23.256;2023-09-07T09:43:52;5.95;;;3.90;;
6527;SDS011;64597;42.664;23.256;2023-09-07T09:46:19;5.28;;;4.10;;
6527;SDS011;64597;42.664;23.256;2023-09-07T09:48:44;6.88;;;4.05;;
6527;SDS011;64597;42.664;23.256;2023-09-07T09:51:10;6.15;;;3.90;;
6527;SDS011;64597;42.664;23.256;2023-09-07T09:53:36;7.75;;;3.67;;
6527;SDS011;64597;42.664;23.256;2023-09-07T09:56:02;5.68;;;4.20;;
6527;SDS011;64597;42.664;23.256;2023-09-07T09:58:28;5.57;;;3.63;;
6527;SDS011;64597;42.664;23.256;2023-09-07T10:00:55;4.30;;;3.65;;
6527;SDS011;64597;42.664;23.256;2023-09-07T10:05:55;4.38;;;3.35;;
6527;SDS011;64597;42.664;23.256;2023-09-07T10:08:21;5.30;;;4.45;;
6527;SDS011;64597;42.664;23.256;2023-09-07T10:10:52;6.72;;;3.92;;
6527;SDS011;64597;42.664;23.256;2023-09-07T10:13:32;6.20;;;3.47;;
6527;SDS011;64597;42.664;23.256;2023-09-07T10:16:05;5.10;;;3.95;;
6527;SDS011;64597;42.664;23.256;2023-09-07T10:18:35;4.43;;;3.47;;
6527;SDS011;64597;42.664;23.256;2023-09-07T10:21:03;4.32;;;3.00;;
6527;SDS011;64597;42.664;23.256;2023-09-07T10:26:05;4.85;;;3.75;;
6527;SDS011;64597;42.664;23.256;2023-09-07T10:28:35;4.47;;;3.70;;
6527;SDS011;64597;42.664;23.256;2023-09-07T10:33:29;5.80;;;3.53;;
6527;SDS011;64597;42.664;23.256;2023-09-07T10:35:55;6.95;;;3.95;;
6527;SDS011;64597;42.664;23.256;2023-09-07T10:38:22;4.47;;;3.55;;
6527;SDS011;64597;42.664;23.256;2023-09-07T10:40:48;4.28;;;3.58;;
6527;SDS011;64597;42.664;23.256;2023-09-07T10:43:13;5.40;;;3.50;;
6527;SDS011;64597;42.664;23.256;2023-09-07T10:45:39;5.70;;;3.58;;
6527;SDS011;64597;42.664;23.256;2023-09-07T10:48:09;6.47;;;3.83;;
6527;SDS011;64597;42.664;23.256;2023-09-07T10:50:43;4.38;;;3.47;;
6527;SDS011;64597;42.664;23.256;2023-09-07T10:53:11;5.53;;;3.60;;
6527;SDS011;64597;42.664;23.256;2023-09-07T10:55:37;4.68;;;3.67;;
6527;SDS011;64597;42.664;23.256;2023-09-07T10:58:05;5.35;;;3.75;;
6527;SDS011;64597;42.664;23.256;2023-09-07T11:00:31;5.38;;;3.60;;
6527;SDS011;64597;42.664;23.256;2023-09-07T11:02:56;4.63;;;4.00;;
6527;SDS011;64597;42.664;23.256;2023-09-07T11:05:22;6.18;;;4.10;;
6527;SDS011;64597;42.664;23.256;2023-09-07T11:07:48;4.05;;;3.20;;
6527;SDS011;64597;42.664;23.256;2023-09-07T11:10:14;4.95;;;3.83;;
6527;SDS011;64597;42.664;23.256;2023-09-07T11:12:40;7.28;;;3.55;;
6527;SDS011;64597;42.664;23.256;2023-09-07T11:15:09;6.30;;;3.78;;
6527;SDS011;64597;42.664;23.256;2023-09-07T11:17:38;6.63;;;3.80;;
6527;SDS011;64597;42.664;23.256;2023-09-07T11:20:07;7.43;;;3.88;;
6527;SDS011;64597;42.664;23.256;2023-09-07T11:22:33;6.22;;;4.10;;
6527;SDS011;64597;42.664;23.256;2023-09-07T11:25:01;6.15;;;4.28;;
6527;SDS011;64597;42.664;23.256;2023-09-07T11:27:29;4.80;;;3.50;;
6527;SDS011;64597;42.664;23.256;2023-09-07T11:29:56;4.10;;;3.40;;
6527;SDS011;64597;42.664;23.256;2023-09-07T11:32:23;6.03;;;3.33;;
6527;SDS011;64597;42.664;23.256;2023-09-07T11:34:52;4.22;;;2.75;;
6527;SDS011;64597;42.664;23.256;2023-09-07T11:37:22;5.10;;;3.25;;
6527;SDS011;64597;42.664;23.256;2023-09-07T11:39:49;6.32;;;3.35;;
6527;SDS011;64597;42.664;23.256;2023-09-07T11:42:14;6.90;;;4.00;;
6527;SDS011;64597;42.664;23.256;2023-09-07T11:44:40;5.72;;;3.75;;
6527;SDS011;64597;42.664;23.256;2023-09-07T11:47:05;6.15;;;3.70;;
6527;SDS011;64597;42.664;23.256;2023-09-07T11:49:31;3.88;;;3.30;;
6527;SDS011;64597;42.664;23.256;2023-09-07T11:51:58;5.18;;;3.83;;
6527;SDS011;64597;42.664;23.256;2023-09-07T11:54:24;5.50;;;3.25;;
6527;SDS011;64597;42.664;23.256;2023-09-07T11:56:49;4.25;;;3.50;;
6527;SDS011;64597;42.664;23.256;2023-09-07T11:59:15;5.18;;;3.50;;
6527;SDS011;64597;42.664;23.256;2023-09-07T12:01:43;4.15;;;3.50;;
6527;SDS011;64597;42.664;23.256;2023-09-07T12:04:09;7.15;;;2.90;;
6527;SDS011;64597;42.664;23.256;2023-09-07T12:06:34;4.32;;;3.08;;
6527;SDS011;64597;42.664;23.256;2023-09-07T12:09:01;6.47;;;3.58;;
6527;SDS011;64597;42.664;23.256;2023-09-07T12:11:28;4.35;;;2.95;;
6527;SDS011;64597;42.664;23.256;2023-09-07T12:13:54;4.28;;;2.92;;
6527;SDS011;64597;42.664;23.256;2023-09-07T12:16:19;5.28;;;3.50;;
6527;SDS011;64597;42.664;23.256;2023-09-07T12:18:45;5.95;;;3.00;;
6527;SDS011;64597;42.664;23.256;2023-09-07T12:21:10;4.50;;;3.13;;
6527;SDS011;64597;42.664;23.256;2023-09-07T12:23:36;6.05;;;2.80;;
6527;SDS011;64597;42.664;23.256;2023-09-07T12:26:01;4.68;;;3.10;;
6527;SDS011;64597;42.664;23.256;2023-09-07T12:28:29;6.88;;;3.30;;
6527;SDS011;64597;42.664;23.256;2023-09-07T12:30:55;5.80;;;3.25;;
6527;SDS011;64597;42.664;23.256;2023-09-07T12:33:20;3.53;;;2.97;;
6527;SDS011;64597;42.664;23.256;2023-09-07T12:35:45;5.32;;;2.95;;
6527;SDS011;64597;42.664;23.256;2023-09-07T12:38:11;4.20;;;3.30;;
6527;SDS011;64597;42.664;23.256;2023-09-07T12:40:42;5.38;;;3.15;;
6527;SDS011;64597;42.664;23.256;2023-09-07T12:43:07;3.13;;;2.60;;
6527;SDS011;64597;42.664;23.256;2023-09-07T12:45:33;3.72;;;2.65;;
6527;SDS011;64597;42.664;23.256;2023-09-07T12:47:58;3.90;;;3.13;;
6527;SDS011;64597;42.664;23.256;2023-09-07T12:50:26;4.90;;;3.00;;
6527;SDS011;64597;42.664;23.256;2023-09-07T12:52:51;4.07;;;2.95;;
6527;SDS011;64597;42.664;23.256;2023-09-07T12:55:17;4.25;;;2.67;;
6527;SDS011;64597;42.664;23.256;2023-09-07T12:57:43;6.72;;;3.20;;
6527;SDS011;64597;42.664;23.256;2023-09-07T13:00:09;4.25;;;2.95;;
6527;SDS011;64597;42.664;23.256;2023-09-07T13:02:36;4.22;;;3.03;;
6527;SDS011;64597;42.664;23.256;2023-09-07T13:05:01;3.38;;;2.65;;
6527;SDS011;64597;42.664;23.256;2023-09-07T13:07:30;5.13;;;3.45;;
6527;SDS011;64597;42.664;23.256;2023-09-07T13:09:57;4.22;;;3.05;;
6527;SDS011;64597;42.664;23.256;2023-09-07T13:12:23;4.50;;;2.80;;
6527;SDS011;64597;42.664;23.256;2023-09-07T13:14:49;4.85;;;2.72;;
6527;SDS011;64597;42.664;23.256;2023-09-07T13:17:14;4.18;;;2.88;;
6527;SDS011;64597;42.664;23.256;2023-09-07T13:19:40;6.57;;;2.88;;
6527;SDS011;64597;42.664;23.256;2023-09-07T13:22:09;3.83;;;2.55;;
6527;SDS011;64597;42.664;23.256;2023-09-07T13:24:34;3.92;;;2.85;;
6527;SDS011;64597;42.664;23.256;2023-09-07T13:27:00;6.57;;;2.80;;
6527;SDS011;64597;42.664;23.256;2023-09-07T13:29:27;7.90;;;3.15;;
6527;SDS011;64597;42.664;23.256;2023-09-07T13:31:52;4.28;;;2.95;;
6527;SDS011;64597;42.664;23.256;2023-09-07T13:34:18;3.25;;;2.60;;
6527;SDS011;64597;42.664;23.256;2023-09-07T13:36:45;4.32;;;2.67;;
6527;SDS011;64597;42.664;23.256;2023-09-07T13:39:10;4.28;;;3.08;;
6527;SDS011;64597;42.664;23.256;2023-09-07T13:41:36;4.18;;;2.90;;
6527;SDS011;64597;42.664;23.256;2023-09-07T13:44:01;4.40;;;2.65;;
6527;SDS011;64597;42.664;23.256;2023-09-07T13:46:27;5.43;;;3.10;;
6527;SDS011;64597;42.664;23.256;2023-09-07T13:48:52;3.72;;;2.70;;
6527;SDS011;64597;42.664;23.256;2023-09-07T13:51:18;4.75;;;2.97;;
6527;SDS011;64597;42.664;23.256;2023-09-07T13:53:43;3.80;;;2.70;;
6527;SDS011;64597;42.664;23.256;2023-09-07T13:56:09;4.85;;;3.00;;
6527;SDS011;64597;42.664;23.256;2023-09-07T13:58:34;4.20;;;2.78;;
6527;SDS011;64597;42.664;23.256;2023-09-07T14:00:59;5.78;;;3.15;;
6527;SDS011;64597;42.664;23.256;2023-09-07T14:03:25;8.30;;;3.22;;
6527;SDS011;64597;42.664;23.256;2023-09-07T14:05:50;7.05;;;2.70;;
6527;SDS011;64597;42.664;23.256;2023-09-07T14:08:16;5.00;;;2.85;;
6527;SDS011;64597;42.664;23.256;2023-09-07T14:10:48;5.22;;;2.95;;
6527;SDS011;64597;42.664;23.256;2023-09-07T14:13:13;5.57;;;3.28;;
6527;SDS011;64597;42.664;23.256;2023-09-07T14:15:39;4.72;;;2.92;;
6527;SDS011;64597;42.664;23.256;2023-09-07T14:18:04;11.80;;;3.45;;
6527;SDS011;64597;42.664;23.256;2023-09-07T14:20:29;5.75;;;3.28;;
6527;SDS011;64597;42.664;23.256;2023-09-07T14:22:55;9.30;;;3.28;;
6527;SDS011;64597;42.664;23.256;2023-09-07T14:25:23;5.53;;;3.35;;
6527;SDS011;64597;42.664;23.256;2023-09-07T14:27:49;4.63;;;3.05;;
6527;SDS011;64597;42.664;23.256;2023-09-07T14:30:14;6.35;;;4.85;;
6527;SDS011;64597;42.664;23.256;2023-09-07T14:32:40;8.68;;;4.38;;
6527;SDS011;64597;42.664;23.256;2023-09-07T14:35:05;3.75;;;2.95;;
6527;SDS011;64597;42.664;23.256;2023-09-07T14:37:31;5.47;;;2.90;;
6527;SDS011;64597;42.664;23.256;2023-09-07T14:39:57;4.68;;;3.13;;
6527;SDS011;64597;42.664;23.256;2023-09-07T14:42:24;5.95;;;3.00;;
6527;SDS011;64597;42.664;23.256;2023-09-07T14:44:49;5.38;;;2.85;;
6527;SDS011;64597;42.664;23.256;2023-09-07T14:47:15;4.97;;;3.05;;
6527;SDS011;64597;42.664;23.256;2023-09-07T14:49:41;12.52;;;3.75;;
6527;SDS011;64597;42.664;23.256;2023-09-07T14:52:06;3.53;;;3.10;;